Time;durP1;ratioP1;P1;durP2;ratioP2;P2;SDS_P1;SDS_P2;PMS_P1;PMS_P2;Temp;Humidity;BMP_temperature;BMP_pressure;BME280_temperature;BME280_humidity;BME280_pressure;Samples;Min_cycle;Max_cycle;Signal;HPM_P1;HPM_P2
2021/05/21 00:00:21;;;;;;;;;;;;;;;;;;4389668;32;20076;-96
2021/05/21 00:02:58;;;;;;;;;;;;;;;;;;4389975;32;20030;-96
2021/05/21 00:05:43;;;;;;;;;;;;;;;;;;4385421;32;20562;-96
2021/05/21 00:08:16;;;;;;;;;;;;;;;;;;4392421;32;19998;-96
2021/05/21 00:10:49;;;;;;;;;;;;;;;;;;4388870;32;19977;-96
2021/05/21 00:13:31;;;;;;;;;;;;;;;;;;4396252;32;19970;-96
2021/05/21 00:16:11;;;;;;;;;;;;;;;;;;4401294;32;19995;-96
2021/05/21 00:18:42;;;;;;;;;;;;;;;;;;4397532;32;19950;-96
2021/05/21 00:21:11;;;;;;;;;;;;;;;;;;4399319;32;20435;-96
2021/05/21 00:23:46;;;;;;;;;;;;;;;;;;4393750;32;19954;-96
2021/05/21 00:29:34;;;;;;;;;;;;;;;;;;4412481;32;19956;-96
2021/05/21 00:35:33;;;;;;;;;;;;;;;;;;4407169;32;19958;-96
2021/05/21 00:38:27;;;;;;;;;;;;;;;;;;4384264;32;20033;-96
2021/05/21 00:41:11;;;;;;;;;;;;;;;;;;4386330;32;20115;-96
2021/05/21 00:43:47;;;;;;;;;;;;;;;;;;4389474;32;20457;-96
2021/05/21 00:46:46;;;;;;;;;;;;;;;;;;4385705;32;19994;-96
2021/05/21 00:50:10;;;;;;;;;;;;;;;;;;4390368;32;19966;-96
2021/05/21 00:52:45;;;;;;;;;;;;;;;;;;4395020;32;19962;-96
2021/05/21 00:56:08;;;;;;;;;;;;;;;;;;4388443;32;19992;-95
2021/05/21 00:59:12;;;;;;;;;;;;;;;;;;4398693;32;20020;-96
2021/05/21 01:01:53;;;;;;;;;;;;;;;;;;4405008;32;20315;-96
2021/05/21 01:05:13;;;;;;;;;;;;;;;;;;4391753;32;19946;-96
2021/05/21 01:07:58;;;;;;;;;;;;;;;;;;4384142;32;19950;-96
2021/05/21 01:10:48;;;;;;;;;;;;;;;;;;4387075;32;20008;-96
2021/05/21 01:13:26;;;;;;;;;;;;;;;;;;4386533;32;19960;-95
2021/05/21 01:16:09;;;;;;;;;;;;;;;;;;4397092;32;20013;-96
2021/05/21 01:19:31;;;;;;;;;;;;;;;;;;4377684;32;20359;-96
2021/05/21 01:22:39;;;;;;;;;;;;;;;;;;;;;
2021/05/21 01:25:30;;;;;;;;;;;;;;;;;;4409541;32;19995;-96
2021/05/21 01:28:15;;;;;;;;;;;;;;;;;;4390070;32;19977;-96
2021/05/21 01:30:47;;;;;;;;;;;;;;;;;;4396197;32;20020;-96
2021/05/21 01:33:36;;;;;;;;;;;;;;;;;;4395486;32;19968;-96
2021/05/21 01:36:12;;;;;;;;;;;;;;;;;;4394055;32;19951;-96
2021/05/21 01:38:49;;;;;;;;;;;;;;;;;;4389884;32;20711;-96
2021/05/21 01:41:20;;;;;;;;;;;;;;;;;;4392865;32;21661;-96
2021/05/21 01:43:51;;;;;;;;;;;;;;;;;;4391443;32;19969;-96
2021/05/21 01:46:34;;;;;;;;;;;;;;;;;;4390902;32;20352;-96
2021/05/21 01:49:46;;;;;;;;;;;;;;;;;;4398883;32;19986;-96
2021/05/21 01:52:40;;;;;;;;;;;;;;;;;;4412249;32;20005;-96
2021/05/21 01:55:35;;;;;;;;;;;;;;;;;;4408000;32;19961;-96
2021/05/21 01:58:32;;;;;;;;;;;;;;;;;;4398515;32;19998;-96
2021/05/21 02:01:15;;;;;;;;;;;;;;;;;;4397273;32;19969;-96
2021/05/21 02:04:06;;;;;;;;;;;;;;;;;;4398851;32;19978;-96
2021/05/21 02:07:06;;;;;;;;;;;;;;;;;;4407544;32;19970;-96
2021/05/21 02:09:49;;;;;;;;;;;;;;;;;;4405452;32;20344;-96
2021/05/21 02:12:32;;;;;;;;;;;;;;;;;;4375520;32;20009;-96
2021/05/21 02:15:25;;;;;;;;;;;;;;;;;;4397144;32;20099;-96
2021/05/21 02:18:06;;;;;;;;;;;;;;;;;;4401999;32;19958;-96
2021/05/21 02:21:15;;;;;;;;;;;;;;;;;;4401148;32;19950;-95
2021/05/21 02:24:05;;;;;;;;;;;;;;;;;;4395834;32;19973;-96
2021/05/21 02:26:48;;;;;;;;;;;;;;;;;;4402896;32;20001;-96
2021/05/21 02:29:39;;;;;;;;;;;;;;;;;;4401061;32;20026;-96
2021/05/21 02:32:23;;;;;;;;;;;;;;;;;;4388710;32;19976;-96
2021/05/21 02:34:58;;;;;;;;;;;;;;;;;;4389321;32;19974;-96
2021/05/21 02:37:40;;;;;;;;;;;;;;;;;;4397447;32;19968;-96
2021/05/21 02:40:23;;;;;;;;;;;;;;;;;;4400801;32;20009;-95
2021/05/21 02:43:23;;;;;;;;;;;;;;;;;;4387867;32;19981;-96
2021/05/21 02:46:02;;;;;;;;;;;;;;;;;;4404988;32;19954;-96
2021/05/21 02:49:11;;;;;;;;;;;;;;;;;;4375859;32;20031;-96
2021/05/21 02:51:40;;;;;;;;;;;;;;;;;;4390091;32;20020;-96
2021/05/21 02:54:16;;;;;;;;;;;;;;;;;;4385376;32;19988;-96
2021/05/21 02:56:49;;;;;;;;;;;;;;;;;;4383829;32;20016;-96
2021/05/21 02:59:19;;;;;;;;;;;;;;;;;;4388880;32;20004;-96
2021/05/21 03:04:56;;;;;;;;;;;;;;;;;;;;;
2021/05/21 03:07:30;;;;;;;;;;;;;;;;;;4404941;32;19970;-96
2021/05/21 03:10:26;;;;;;;;;;;;;;;;;;4389096;32;20336;-96
2021/05/21 03:13:14;;;;;;;;;;;;;;;;;;4402829;32;19960;-96
2021/05/21 03:16:17;;;;;;;;;;;;;;;;;;4394784;32;20657;-96
2021/05/21 03:19:22;;;;;;;;;;;;;;;;;;4383524;32;19989;-96
2021/05/21 03:22:14;;;;;;;;;;;;;;;;;;4401824;32;20009;-96
2021/05/21 03:25:07;;;;;;;;;;;;;;;;;;4394745;32;19954;-96
2021/05/21 03:27:48;;;;;;;;;;;;;;;;;;4392998;32;19980;-96
2021/05/21 03:30:40;;;;;;;;;;;;;;;;;;4389069;32;20046;-96
2021/05/21 03:33:31;;;;;;;;;;;;;;;;;;4397333;32;19964;-96
2021/05/21 03:36:16;;;;;;;;;;;;;;;;;;4390542;32;19976;-96
2021/05/21 03:38:50;;;;;;;;;;;;;;;;;;4384288;32;20382;-96
2021/05/21 03:41:34;;;;;;;;;;;;;;;;;;4387438;32;20394;-96
2021/05/21 03:44:29;;;;;;;;;;;;;;;;;;4395438;32;19964;-96
2021/05/21 03:47:09;;;;;;;;;;;;;;;;;;4387381;32;19985;-96
2021/05/21 03:49:51;;;;;;;;;;;;;;;;;;4393655;32;20000;-96
2021/05/21 03:52:41;;;;;;;;;;;;;;;;;;4390796;32;19960;-96
2021/05/21 03:55:29;;;;;;;;;;;;;;;;;;4388209;32;20267;-96
2021/05/21 03:58:26;;;;;;;;;;;;;;;;;;4390392;32;19968;-96
2021/05/21 04:01:15;;;;;;;;;;;;;;;;;;4403535;32;20342;-95
2021/05/21 04:03:48;;;;;;;;;;;;;;;;;;4387563;32;19981;-96
2021/05/21 04:06:18;;;;;;;;;;;;;;;;;;4390668;32;19954;-95
2021/05/21 04:09:05;;;;;;;;;;;;;;;;;;4394764;32;19950;-96
2021/05/21 04:11:48;;;;;;;;;;;;;;;;;;4392624;32;19950;-96
2021/05/21 04:14:32;;;;;;;;;;;;;;;;;;4406843;32;19958;-96
2021/05/21 04:17:11;;;;;;;;;;;;;;;;;;4388635;32;19990;-96
2021/05/21 04:20:10;;;;;;;;;;;;;;;;;;4387745;32;20379;-96
2021/05/21 04:22:49;;;;;;;;;;;;;;;;;;4381989;32;20377;-96
2021/05/21 04:25:18;;;;;;;;;;;;;;;;;;4387969;32;19998;-96
2021/05/21 04:28:22;;;;;;;;;;;;;;;;;;4392180;32;19962;-96
2021/05/21 04:31:12;;;;;;;;;;;;;;;;;;4415545;32;19964;-96
2021/05/21 04:33:54;;;;;;;;;;;;;;;;;;4397266;32;19962;-96
2021/05/21 04:36:52;;;;;;;;;;;;;;;;;;4387097;32;20021;-96
2021/05/21 04:39:34;;;;;;;;;;;;;;;;;;4398776;32;19947;-94
2021/05/21 04:42:28;;;;;;;;;;;;;;;;;;4397512;32;19954;-96
2021/05/21 04:45:10;;;;;;;;;;;;;;;;;;4382346;32;19962;-95
2021/05/21 04:48:05;;;;;;;;;;;;;;;;;;4392906;32;20518;-95
2021/05/21 04:50:35;;;;;;;;;;;;;;;;;;4394643;32;20006;-96
2021/05/21 04:53:24;;;;;;;;;;;;;;;;;;4328696;32;19973;-96
2021/05/21 04:56:02;;;;;;;;;;;;;;;;;;4394227;32;19954;-96
2021/05/21 04:58:45;;;;;;;;;;;;;;;;;;4389799;32;19969;-96
2021/05/21 05:01:21;;;;;;;;;;;;;;;;;;4393589;32;20048;-96
2021/05/21 05:04:18;;;;;;;;;;;;;;;;;;4389508;32;20225;-96
2021/05/21 05:07:18;;;;;;;;;;;;;;;;;;4399362;32;19951;-96
2021/05/21 05:10:02;;;;;;;;;;;;;;;;;;4397451;32;19958;-96
2021/05/21 05:12:45;;;;;;;;;;;;;;;;;;4396232;32;19976;-96
2021/05/21 05:15:21;;;;;;;;;;;;;;;;;;4392839;32;20020;-95
2021/05/21 05:18:11;;;;;;;;;;;;;;;;;;4406939;32;19958;-95
2021/05/21 05:20:55;;;;;;;;;;;;;;;;;;4391006;32;20019;-96
2021/05/21 05:24:05;;;;;;;;;;;;;;;;;;4413693;32;19954;-96
2021/05/21 05:26:40;;;;;;;;;;;;;;;;;;4394945;32;19988;-96
2021/05/21 05:29:44;;;;;;;;;;;;;;;;;;4395308;32;20286;-96
2021/05/21 05:32:19;;;;;;;;;;;;;;;;;;4405989;32;19995;-96
2021/05/21 05:35:02;;;;;;;;;;;;;;;;;;4389816;32;21678;-96
2021/05/21 05:37:45;;;;;;;;;;;;;;;;;;4395869;32;19975;-96
2021/05/21 05:40:20;;;;;;;;;;;;;;;;;;4395201;32;19967;-96
2021/05/21 05:43:03;;;;;;;;;;;;;;;;;;4391656;32;19977;-96
2021/05/21 05:45:39;;;;;;;;;;;;;;;;;;4413438;32;19959;-96
2021/05/21 05:48:49;;;;;;;;;;;;;;;;;;;;;
2021/05/21 05:51:30;;;;;;;;;;;;;;;;;;4401073;32;19979;-96
2021/05/21 05:54:11;;;;;;;;;;;;;;;;;;4397202;32;19960;-96
2021/05/21 05:56:56;;;;;;;;;;;;;;;;;;4391782;32;19959;-96
2021/05/21 06:00:44;;;;;;;;;;;;;;;;;;4397443;32;20005;-96
2021/05/21 06:03:29;;;;;;;;;;;;;;;;;;4402127;32;20016;-96
2021/05/21 06:06:18;;;;;;;;;;;;;;;;;;4393658;32;19947;-96
2021/05/21 06:23:44;;;;;;;;;;;;;;;;;;4513727;28;20319;-82
2021/05/21 06:26:28;;;;;;;;;;;;;;;;;;4236660;33;20023;-89
2021/05/21 06:28:59;;;;;;;;;;;;;;;;;;4253637;33;20451;-85
2021/05/21 06:31:28;;;;;;;;;;;;;;;;;;4253400;33;20017;-88
2021/05/21 06:33:58;;;;;;;;;;;;;;;;;;4231953;33;20383;-88
2021/05/21 06:36:29;;;;;;;;;;;;;;;;;;4235607;33;20017;-84
2021/05/21 06:39:00;;;;;;;;;;;;;;;;;;4235541;33;19961;-86
2021/05/21 06:41:30;;;;;;;;;;;;;;;;;;4241175;33;19967;-89
2021/05/21 06:44:00;;;;;;;;;;;;;;;;;;4235497;33;20456;-87
2021/05/21 06:46:30;;;;;;;;;;;;;;;;;;4234838;33;19976;-86
2021/05/21 06:49:01;;;;;;;;;;;;;;;;;;4234339;33;19985;-85
2021/05/21 06:51:31;;;;;;;;;;;;;;;;;;4227472;33;19958;-83
2021/05/21 06:54:03;;;;;;;;;;;;;;;;;;4251884;33;20518;-83
2021/05/21 06:56:35;;;;;;;;;;;;;;;;;;4236435;33;19950;-85
2021/05/21 06:59:03;;;;;;;;;;;;;;;;;;4239553;33;20308;-85
2021/05/21 07:01:34;;;;;;;;;;;;;;;;;;4235388;33;20452;-84
2021/05/21 07:04:02;;;;;;;;;;;;;;;;;;4219565;33;20025;-84
2021/05/21 07:06:31;;;;;;;;;;;;;;;;;;4222301;33;19958;-85
2021/05/21 07:08:59;;;;;;;;;;;;;;;;;;4229209;33;20002;-86
2021/05/21 07:11:30;;;;;;;;;;;;;;;;;;4224739;33;19961;-85
2021/05/21 07:14:03;;;;;;;;;;;;;;;;;;4230340;33;19961;-84
2021/05/21 07:16:34;;;;;;;;;;;;;;;;;;4241672;33;20400;-85
2021/05/21 07:19:14;;;;;;;;;;;;;;;;;;4223308;33;19996;-82
2021/05/21 07:22:05;;;;;;;;;;;;;;;;;;4235598;33;19954;-84
2021/05/21 07:24:34;;;;;;;;;;;;;;;;;;4217323;33;19982;-87
2021/05/21 07:27:05;;;;;;;;;;;;;;;;;;4233658;33;20349;-87
2021/05/21 07:29:34;;;;;;;;;;;;;;;;;;4219555;33;20010;-85
2021/05/21 07:32:02;;;;;;;;;;;;;;;;;;4214757;33;20024;-86
2021/05/21 07:34:33;;;;;;;;;;;;;;;;;;4234435;33;20287;-85
2021/05/21 07:37:16;;;;;;;;;;;;;;;;;;4239683;33;19954;-84
2021/05/21 07:39:45;;;;;;;;;;;;;;;;;;4231878;33;20425;-84
2021/05/21 07:42:18;;;;;;;;;;;;;;;;;;4228771;33;19959;-84
2021/05/21 07:44:49;;;;;;;;;;;;;;;;;;4232524;33;19970;-84
2021/05/21 07:47:20;;;;;;;;;;;;;;;;;;4242098;33;19988;-84
2021/05/21 07:49:50;;;;;;;;;;;;;;;;;;4230991;33;19962;-83
2021/05/21 07:52:18;;;;;;;;;;;;;;;;;;4229824;33;20218;-86
2021/05/21 07:54:47;;;;;;;;;;;;;;;;;;4231583;33;19972;-85
2021/05/21 07:57:15;;;;;;;;;;;;;;;;;;4225031;33;20024;-87
2021/05/21 07:59:47;;;;;;;;;;;;;;;;;;4240042;33;21054;-85
2021/05/21 08:02:18;;;;;;;;;;;;;;;;;;4221254;33;20027;-85
2021/05/21 08:04:47;;;;;;;;;;;;;;;;;;4227780;33;19954;-85
2021/05/21 08:07:17;;;;;;;;;;;;;;;;;;4225981;33;19966;-84
2021/05/21 08:09:49;;;;;;;;;;;;;;;;;;4216120;33;20000;-84
2021/05/21 08:12:20;;;;;;;;;;;;;;;;;;4235431;33;19980;-82
2021/05/21 08:14:51;;;;;;;;;;;;;;;;;;4229531;33;19975;-83
2021/05/21 08:17:20;;;;;;;;;;;;;;;;;;4228566;33;20019;-86
2021/05/21 08:20:08;;;;;;;;;;;;;;;;;;4231649;33;19984;-85
2021/05/21 08:22:39;;;;;;;;;;;;;;;;;;4223830;33;20350;-82
2021/05/21 08:25:09;;;;;;;;;;;;;;;;;;4226952;33;20002;-84
2021/05/21 08:27:40;;;;;;;;;;;;;;;;;;4224051;33;19993;-85
2021/05/21 08:30:11;;;;;;;;;;;;;;;;;;4236934;33;19962;-84
2021/05/21 08:32:41;;;;;;;;;;;;;;;;;;4233517;33;20621;-85
2021/05/21 08:35:11;;;;;;;;;;;;;;;;;;4256016;33;20013;-82
2021/05/21 08:37:42;;;;;;;;;;;;;;;;;;4231346;33;20036;-86
2021/05/21 08:40:13;;;;;;;;;;;;;;;;;;4231466;33;20491;-85
2021/05/21 08:42:41;;;;;;;;;;;;;;;;;;4226001;33;19968;-84
2021/05/21 08:45:17;;;;;;;;;;;;;;;;;;4240859;33;19980;-87
2021/05/21 08:47:48;;;;;;;;;;;;;;;;;;4239448;33;20003;-84
2021/05/21 08:50:19;;;;;;;;;;;;;;;;;;4226456;33;19984;-85
2021/05/21 08:52:48;;;;;;;;;;;;;;;;;;4246105;33;20011;-85
2021/05/21 08:55:18;;;;;;;;;;;;;;;;;;4233244;33;19958;-85
2021/05/21 08:57:49;;;;;;;;;;;;;;;;;;4237423;33;20006;-85
2021/05/21 09:00:20;;;;;;;;;;;;;;;;;;4244413;33;19989;-86
2021/05/21 09:02:51;;;;;;;;;;;;;;;;;;4221161;33;20021;-84
2021/05/21 09:05:22;;;;;;;;;;;;;;;;;;4230420;33;20419;-81
2021/05/21 09:07:55;;;;;;;;;;;;;;;;;;4229987;33;20377;-84
2021/05/21 09:10:26;;;;;;;;;;;;;;;;;;4225352;33;20285;-85
2021/05/21 09:12:57;;;;;;;;;;;;;;;;;;4247758;33;19997;-84
2021/05/21 09:15:28;;;;;;;;;;;;;;;;;;4236845;33;20002;-85
2021/05/21 09:18:00;;;;;;;;;;;;;;;;;;4233830;33;19966;-84
2021/05/21 09:20:30;;;;;;;;;;;;;;;;;;4235603;33;19970;-83
2021/05/21 09:23:02;;;;;;;;;;;;;;;;;;4233363;33;20069;-82
2021/05/21 09:25:30;;;;;;;;;;;;;;;;;;4232968;33;20213;-86
2021/05/21 09:28:01;;;;;;;;;;;;;;;;;;4217511;33;20035;-85
2021/05/21 09:30:32;;;;;;;;;;;;;;;;;;4224876;33;19977;-84
2021/05/21 09:33:03;;;;;;;;;;;;;;;;;;4226807;33;20340;-84
2021/05/21 09:35:33;;;;;;;;;;;;;;;;;;4241367;33;20023;-84
2021/05/21 09:38:05;;;;;;;;;;;;;;;;;;4237324;33;19957;-85
2021/05/21 09:40:37;;;;;;;;;;;;;;;;;;4232713;33;19991;-85
2021/05/21 09:43:08;;;;;;;;;;;;;;;;;;4227699;33;20036;-83
2021/05/21 09:45:39;;;;;;;;;;;;;;;;;;4218252;33;20034;-84
2021/05/21 09:48:10;;;;;;;;;;;;;;;;;;4228894;33;19942;-85
2021/05/21 09:50:40;;;;;;;;;;;;;;;;;;4249551;33;19981;-88
2021/05/21 09:53:09;;;;;;;;;;;;;;;;;;4237991;33;20462;-86
2021/05/21 09:55:37;;;;;;;;;;;;;;;;;;4223425;33;20013;-84
2021/05/21 09:58:08;;;;;;;;;;;;;;;;;;4240811;33;20021;-87
2021/05/21 10:00:40;;;;;;;;;;;;;;;;;;4241252;33;20030;-85
2021/05/21 10:03:11;;;;;;;;;;;;;;;;;;4235948;33;20005;-85
2021/05/21 10:05:54;;;;;;;;;;;;;;;;;;4222361;33;20306;-84
2021/05/21 10:08:24;;;;;;;;;;;;;;;;;;4238270;33;20025;-85
2021/05/21 10:10:52;;;;;;;;;;;;;;;;;;4238031;33;19986;-85
2021/05/21 10:13:23;;;;;;;;;;;;;;;;;;4233323;33;20425;-86
2021/05/21 10:15:50;;;;;;;;;;;;;;;;;;4221344;33;20468;-86
2021/05/21 10:18:18;;;;;;;;;;;;;;;;;;4226633;33;19991;-85
2021/05/21 10:20:48;;;;;;;;;;;;;;;;;;4228022;33;20020;-86
2021/05/21 10:23:19;;;;;;;;;;;;;;;;;;4226002;33;19976;-84
2021/05/21 10:25:50;;;;;;;;;;;;;;;;;;4216521;33;19970;-84
2021/05/21 10:28:20;;;;;;;;;;;;;;;;;;4226386;33;19988;-85
2021/05/21 10:30:50;;;;;;;;;;;;;;;;;;4237149;33;20097;-86
2021/05/21 10:33:22;;;;;;;;;;;;;;;;;;4220161;33;20017;-84
2021/05/21 10:36:11;;;;;;;;;;;;;;;;;;4219200;33;19962;-87
2021/05/21 10:39:00;;;;;;;;;;;;;;;;;;4227457;33;20013;-85
2021/05/21 10:41:49;;;;;;;;;;;;;;;;;;4235226;33;19979;-82
2021/05/21 10:44:19;;;;;;;;;;;;;;;;;;4232498;33;20044;-84
2021/05/21 10:46:50;;;;;;;;;;;;;;;;;;4222489;33;20352;-84
2021/05/21 10:49:22;;;;;;;;;;;;;;;;;;4222316;33;20025;-86
2021/05/21 10:51:53;;;;;;;;;;;;;;;;;;4224130;33;19966;-84
2021/05/21 10:54:24;;;;;;;;;;;;;;;;;;4228072;33;20421;-83
2021/05/21 10:56:57;;;;;;;;;;;;;;;;;;4234679;33;20083;-88
2021/05/21 10:59:28;;;;;;;;;;;;;;;;;;4262937;33;19989;-85
2021/05/21 11:01:58;;;;;;;;;;;;;;;;;;4239648;33;19977;-84
2021/05/21 11:04:33;;;;;;;;;;;;;;;;;;4249594;33;19965;-85
2021/05/21 11:07:06;;;;;;;;;;;;;;;;;;4252683;33;20005;-85
2021/05/21 11:09:38;;;;;;;;;;;;;;;;;;4246516;33;19993;-85
2021/05/21 11:12:09;;;;;;;;;;;;;;;;;;4240729;33;19953;-83
2021/05/21 11:14:40;;;;;;;;;;;;;;;;;;4255218;33;19981;-86
2021/05/21 11:17:11;;;;;;;;;;;;;;;;;;4264795;33;20001;-83
2021/05/21 11:19:41;;;;;;;;;;;;;;;;;;4251851;33;19977;-84
2021/05/21 11:22:13;;;;;;;;;;;;;;;;;;4250930;33;19954;-82
2021/05/21 11:24:44;;;;;;;;;;;;;;;;;;4255822;33;19976;-83
2021/05/21 11:27:15;;;;;;;;;;;;;;;;;;4237846;33;20272;-84
2021/05/21 11:29:46;;;;;;;;;;;;;;;;;;4263900;33;20309;-83
2021/05/21 11:32:17;;;;;;;;;;;;;;;;;;4251020;33;20127;-84
2021/05/21 11:34:48;;;;;;;;;;;;;;;;;;4234175;33;20021;-85
2021/05/21 11:37:18;;;;;;;;;;;;;;;;;;4260874;33;20005;-84
2021/05/21 11:39:52;;;;;;;;;;;;;;;;;;4264531;33;19973;-83
2021/05/21 11:42:22;;;;;;;;;;;;;;;;;;4251683;33;20007;-81
2021/05/21 11:44:54;;;;;;;;;;;;;;;;;;4244994;33;19958;-83
2021/05/21 11:47:24;;;;;;;;;;;;;;;;;;4264519;33;20340;-83
2021/05/21 11:49:55;;;;;;;;;;;;;;;;;;4264002;33;20012;-82
2021/05/21 11:52:25;;;;;;;;;;;;;;;;;;4255643;33;19960;-82
2021/05/21 11:54:56;;;;;;;;;;;;;;;;;;4237919;33;20448;-83
2021/05/21 11:57:27;;;;;;;;;;;;;;;;;;4264357;33;19954;-84
2021/05/21 11:59:58;;;;;;;;;;;;;;;;;;4239250;33;20125;-82
2021/05/21 12:02:29;;;;;;;;;;;;;;;;;;4230860;33;19966;-84
2021/05/21 12:05:01;;;;;;;;;;;;;;;;;;4251922;33;20308;-85
2021/05/21 12:07:31;;;;;;;;;;;;;;;;;;4260548;33;19961;-83
2021/05/21 12:10:03;;;;;;;;;;;;;;;;;;4244266;33;19984;-83
2021/05/21 12:12:34;;;;;;;;;;;;;;;;;;4257060;33;20450;-85
2021/05/21 12:15:02;;;;;;;;;;;;;;;;;;4238417;33;20039;-84
2021/05/21 12:17:34;;;;;;;;;;;;;;;;;;4222646;33;20395;-82
2021/05/21 12:20:07;;;;;;;;;;;;;;;;;;4227177;33;19961;-84
2021/05/21 12:22:38;;;;;;;;;;;;;;;;;;4219744;33;19972;-83
2021/05/21 12:25:09;;;;;;;;;;;;;;;;;;4242588;33;20479;-82
2021/05/21 12:27:39;;;;;;;;;;;;;;;;;;4235555;33;19958;-82
2021/05/21 12:30:10;;;;;;;;;;;;;;;;;;4242602;33;20358;-83
2021/05/21 12:32:40;;;;;;;;;;;;;;;;;;4246537;33;19998;-81
2021/05/21 12:35:11;;;;;;;;;;;;;;;;;;4249020;33;20003;-82
2021/05/21 12:37:41;;;;;;;;;;;;;;;;;;4245358;33;19962;-83
2021/05/21 12:40:12;;;;;;;;;;;;;;;;;;4230527;33;19993;-82
2021/05/21 12:42:43;;;;;;;;;;;;;;;;;;4233122;33;20069;-83
2021/05/21 12:45:13;;;;;;;;;;;;;;;;;;4232911;33;20430;-84
2021/05/21 12:47:43;;;;;;;;;;;;;;;;;;4232946;33;20015;-83
2021/05/21 12:50:14;;;;;;;;;;;;;;;;;;4228748;33;19981;-85
2021/05/21 12:52:45;;;;;;;;;;;;;;;;;;4232344;33;19960;-83
2021/05/21 12:55:16;;;;;;;;;;;;;;;;;;4233111;33;19965;-82
2021/05/21 12:57:47;;;;;;;;;;;;;;;;;;4221699;33;20049;-84
2021/05/21 13:00:18;;;;;;;;;;;;;;;;;;4229498;33;20398;-84
2021/05/21 13:02:48;;;;;;;;;;;;;;;;;;4232147;33;20325;-85
2021/05/21 13:05:19;;;;;;;;;;;;;;;;;;4232766;33;20064;-83
2021/05/21 13:07:50;;;;;;;;;;;;;;;;;;4233470;33;20019;-84
2021/05/21 13:10:20;;;;;;;;;;;;;;;;;;4228984;33;20460;-81
2021/05/21 13:12:51;;;;;;;;;;;;;;;;;;4252394;33;19957;-81
2021/05/21 13:15:23;;;;;;;;;;;;;;;;;;4247404;33;20021;-81
2021/05/21 13:17:55;;;;;;;;;;;;;;;;;;4249888;33;20012;-82
2021/05/21 13:20:26;;;;;;;;;;;;;;;;;;4226962;33;20201;-82
2021/05/21 13:22:56;;;;;;;;;;;;;;;;;;4232538;33;20054;-85
2021/05/21 13:25:29;;;;;;;;;;;;;;;;;;4233375;33;19958;-80
2021/05/21 13:28:00;;;;;;;;;;;;;;;;;;4235345;33;20072;-81
2021/05/21 13:30:31;;;;;;;;;;;;;;;;;;4226175;33;19961;-79
2021/05/21 13:33:02;;;;;;;;;;;;;;;;;;4251976;33;20017;-84
2021/05/21 13:35:33;;;;;;;;;;;;;;;;;;4235302;33;20036;-86
2021/05/21 13:38:04;;;;;;;;;;;;;;;;;;4236350;33;20363;-83
2021/05/21 13:40:35;;;;;;;;;;;;;;;;;;4237075;33;19965;-84
2021/05/21 13:43:06;;;;;;;;;;;;;;;;;;4243134;33;20386;-83
2021/05/21 13:45:36;;;;;;;;;;;;;;;;;;4231689;33;20006;-84
2021/05/21 13:48:07;;;;;;;;;;;;;;;;;;4221428;33;19957;-83
2021/05/21 13:50:39;;;;;;;;;;;;;;;;;;4242679;33;19954;-84
2021/05/21 13:53:09;;;;;;;;;;;;;;;;;;4236423;33;19961;-83
2021/05/21 13:55:39;;;;;;;;;;;;;;;;;;4221839;33;20464;-81
2021/05/21 13:58:10;;;;;;;;;;;;;;;;;;4231413;33;20312;-81
2021/05/21 14:00:41;;;;;;;;;;;;;;;;;;4234277;33;19975;-81
2021/05/21 14:03:12;;;;;;;;;;;;;;;;;;4237635;33;20001;-82
2021/05/21 14:05:42;;;;;;;;;;;;;;;;;;4224585;33;20009;-83
2021/05/21 14:08:12;;;;;;;;;;;;;;;;;;4247173;33;19957;-83
2021/05/21 14:10:43;;;;;;;;;;;;;;;;;;4222299;33;20005;-82
2021/05/21 14:13:14;;;;;;;;;;;;;;;;;;4225389;33;19974;-82
2021/05/21 14:15:44;;;;;;;;;;;;;;;;;;4230965;33;19984;-79
2021/05/21 14:18:14;;;;;;;;;;;;;;;;;;4221259;33;20352;-81
2021/05/21 14:20:45;;;;;;;;;;;;;;;;;;4239163;33;20307;-82
2021/05/21 14:23:17;;;;;;;;;;;;;;;;;;4213187;33;19961;-82
2021/05/21 14:25:51;;;;;;;;;;;;;;;;;;4241769;33;20728;-85
2021/05/21 14:28:22;;;;;;;;;;;;;;;;;;4242160;33;20436;-82
2021/05/21 14:30:52;;;;;;;;;;;;;;;;;;4241217;33;19973;-83
2021/05/21 14:33:31;;;;;;;;;;;;;;;;;;4233399;33;20036;-83
2021/05/21 14:36:02;;;;;;;;;;;;;;;;;;4246165;33;20404;-83
2021/05/21 14:38:39;;;;;;;;;;;;;;;;;;4227077;33;20084;-83
2021/05/21 14:41:09;;;;;;;;;;;;;;;;;;4222481;33;20463;-84
2021/05/21 14:43:40;;;;;;;;;;;;;;;;;;4217647;33;20456;-84
2021/05/21 14:46:11;;;;;;;;;;;;;;;;;;4244168;33;20445;-83
2021/05/21 14:48:42;;;;;;;;;;;;;;;;;;4242033;33;20028;-83
2021/05/21 14:51:25;;;;;;;;;;;;;;;;;;4221950;33;20027;-84
2021/05/21 14:53:55;;;;;;;;;;;;;;;;;;4238997;33;20323;-82
2021/05/21 14:56:26;;;;;;;;;;;;;;;;;;4238097;33;20021;-83
2021/05/21 14:58:57;;;;;;;;;;;;;;;;;;4242958;33;20332;-83
2021/05/21 15:01:28;;;;;;;;;;;;;;;;;;4239447;33;20379;-83
2021/05/21 15:03:59;;;;;;;;;;;;;;;;;;4242641;33;19997;-82
2021/05/21 15:06:27;;;;;;;;;;;;;;;;;;4240797;33;19968;-85
2021/05/21 15:08:59;;;;;;;;;;;;;;;;;;4248876;33;19962;-84
2021/05/21 15:11:33;;;;;;;;;;;;;;;;;;4235792;33;20002;-85
2021/05/21 15:14:07;;;;;;;;;;;;;;;;;;4234066;33;20492;-85
2021/05/21 15:24:49;;;;;;;;;;;;;;;;;;4242956;33;20636;-82
2021/05/21 15:27:21;;;;;;;;;;;;;;;;;;4220804;33;22493;-85
2021/05/21 15:29:53;;;;;;;;;;;;;;;;;;4247699;33;19976;-84
2021/05/21 15:32:23;;;;;;;;;;;;;;;;;;4239825;33;20298;-84
2021/05/21 15:34:54;;;;;;;;;;;;;;;;;;4240233;33;20060;-82
2021/05/21 15:37:26;;;;;;;;;;;;;;;;;;4254009;33;20685;-83
2021/05/21 15:39:56;;;;;;;;;;;;;;;;;;4249867;33;20010;-83
2021/05/21 15:45:24;;;;;;;;;;;;;;;;;;4225153;33;20037;-83
2021/05/21 15:45:28;;;;;;;;;;;;;;;;;;4230533;33;20354;-84
2021/05/21 15:47:59;;;;;;;;;;;;;;;;;;4233389;33;20444;-84
2021/05/21 15:50:37;;;;;;;;;;;;;;;;;;4222499;33;20013;-83
2021/05/21 15:58:58;;;;;;;;;;;;;;;;;;4236463;33;19954;-82
2021/05/21 16:01:29;;;;;;;;;;;;;;;;;;4235897;33;20635;-83
2021/05/21 16:04:00;;;;;;;;;;;;;;;;;;4235347;33;19966;-81
2021/05/21 16:06:32;;;;;;;;;;;;;;;;;;4239841;33;20004;-84
2021/05/21 16:09:03;;;;;;;;;;;;;;;;;;4226414;33;19958;-83
2021/05/21 16:11:36;;;;;;;;;;;;;;;;;;4241018;33;20338;-82
2021/05/21 16:14:05;;;;;;;;;;;;;;;;;;4224431;33;20058;-83
2021/05/21 16:16:37;;;;;;;;;;;;;;;;;;4248623;33;19981;-81
2021/05/21 16:19:08;;;;;;;;;;;;;;;;;;4246136;33;20129;-83
2021/05/21 16:21:38;;;;;;;;;;;;;;;;;;4234673;33;20414;-85
2021/05/21 16:24:10;;;;;;;;;;;;;;;;;;4232853;33;19970;-81
2021/05/21 16:26:41;;;;;;;;;;;;;;;;;;4226225;33;20029;-83
2021/05/21 16:29:12;;;;;;;;;;;;;;;;;;4228156;33;20013;-83
2021/05/21 16:31:40;;;;;;;;;;;;;;;;;;4226988;33;20033;-82
2021/05/21 16:34:11;;;;;;;;;;;;;;;;;;4252383;33;19957;-83
2021/05/21 16:36:42;;;;;;;;;;;;;;;;;;4243872;33;19965;-85
2021/05/21 16:39:13;;;;;;;;;;;;;;;;;;4240879;33;20021;-87
2021/05/21 16:41:44;;;;;;;;;;;;;;;;;;4215397;33;20001;-83
2021/05/21 16:44:16;;;;;;;;;;;;;;;;;;4232532;33;20013;-83
2021/05/21 16:46:47;;;;;;;;;;;;;;;;;;4218191;33;20337;-83
2021/05/21 16:49:18;;;;;;;;;;;;;;;;;;4220029;33;19999;-84
2021/05/21 16:51:49;;;;;;;;;;;;;;;;;;4231883;33;20516;-83
2021/05/21 16:54:24;;;;;;;;;;;;;;;;;;4222720;33;19957;-83
2021/05/21 16:56:52;;;;;;;;;;;;;;;;;;4230327;33;20057;-85
2021/05/21 16:59:22;;;;;;;;;;;;;;;;;;4212062;33;20394;-83
2021/05/21 17:01:53;;;;;;;;;;;;;;;;;;4224383;33;19977;-84
2021/05/21 17:04:24;;;;;;;;;;;;;;;;;;4215000;33;19962;-85
2021/05/21 17:06:55;;;;;;;;;;;;;;;;;;4241020;33;19969;-84
2021/05/21 17:09:25;;;;;;;;;;;;;;;;;;4232540;33;20320;-82
2021/05/21 17:11:56;;;;;;;;;;;;;;;;;;4242402;33;20029;-83
2021/05/21 17:14:27;;;;;;;;;;;;;;;;;;4232793;33;19990;-83
2021/05/21 17:17:36;;;;;;;;;;;;;;;;;;4231579;33;20280;-82
2021/05/21 17:20:26;;;;;;;;;;;;;;;;;;4229439;33;20347;-83
2021/05/21 17:42:41;;;;;;;;;;;;;;;;;;4236831;33;20323;-81
2021/05/21 17:45:25;;;;;;;;;;;;;;;;;;4218223;33;20406;-86
2021/05/21 17:53:32;;;;;;;;;;;;;;;;;;4233125;33;19958;-85
2021/05/21 17:56:42;;;;;;;;;;;;;;;;;;4218940;33;19961;-84
2021/05/21 17:59:29;;;;;;;;;;;;;;;;;;4240289;33;20576;-83
2021/05/21 18:05:13;;;;;;;;;;;;;;;;;;4232995;33;20398;-85
2021/05/21 18:18:24;;;;;;;;;;;;;;;;;;4238151;33;20444;-84
2021/05/21 18:41:43;;;;;;;;;;;;;;;;;;4213404;33;20452;-85
2021/05/21 19:00:26;;;;;;;;;;;;;;;;;;4171820;34;20409;-84
2021/05/21 19:03:00;;;;;;;;;;;;;;;;;;4158171;34;19963;-84
2021/05/21 19:05:34;;;;;;;;;;;;;;;;;;4210669;33;19964;-84
2021/05/21 19:08:11;;;;;;;;;;;;;;;;;;4228105;33;20377;-84
2021/05/21 19:13:55;;;;;;;;;;;;;;;;;;4227915;33;20004;-85
2021/05/21 19:19:22;;;;;;;;;;;;;;;;;;4207799;33;20891;-85
2021/05/21 19:21:53;;;;;;;;;;;;;;;;;;4221664;33;20371;-83
2021/05/21 19:24:24;;;;;;;;;;;;;;;;;;4231887;33;19954;-81
2021/05/21 19:26:52;;;;;;;;;;;;;;;;;;4247687;33;19955;-81
2021/05/21 19:30:12;;;;;;;;;;;;;;;;;;4239486;33;19958;-82
2021/05/21 19:32:20;;;;;;;;;;;;;;;;;;4228136;33;20019;-83
2021/05/21 19:35:18;;;;;;;;;;;;;;;;;;4241460;33;19992;-82
2021/05/21 19:40:45;;;;;;;;;;;;;;;;;;4241727;33;19965;-82
2021/05/21 19:43:37;;;;;;;;;;;;;;;;;;4225277;33;19955;-84
2021/05/21 20:02:34;;;;;;;;;;;;;;;;;;4235408;33;20017;-83
2021/05/21 20:13:27;;;;;;;;;;;;;;;;;;4234793;33;20077;-85
2021/05/21 20:15:58;;;;;;;;;;;;;;;;;;4243378;33;19972;-84
2021/05/21 20:18:31;;;;;;;;;;;;;;;;;;4230611;33;19977;-84
2021/05/21 20:21:02;;;;;;;;;;;;;;;;;;4237463;33;20021;-83